Time;durP1;ratioP1;P1;durP2;ratioP2;P2;SDS_P1;SDS_P2;PMS_P1;PMS_P2;Temp;Humidity;BMP_temperature;BMP_pressure;BME280_temperature;BME280_humidity;BME280_pressure;Samples;Min_cycle;Max_cycle;Signal;HPM_P1;HPM_P2
2022/03/03 00:01:40;;;;;;;15.70;8.65;;;-1.90;72.30;;;;;;6047333;23;20109;-86
2022/03/03 00:08:32;;;;;;;19.55;9.63;;;-1.90;71.80;;;;;;5928744;24;20058;-86
2022/03/03 00:11:21;;;;;;;18.63;9.82;;;-1.90;73.00;;;;;;5910209;24;20021;-86
2022/03/03 00:13:47;;;;;;;18.73;9.45;;;-2.00;73.50;;;;;;5910793;23;20472;-87
2022/03/03 00:16:14;;;;;;;20.33;10.35;;;-2.00;73.50;;;;;;5969344;23;20028;-86
2022/03/03 00:19:23;;;;;;;19.70;10.65;;;-2.10;73.00;;;;;;5997257;23;20013;-86
2022/03/03 00:21:54;;;;;;;16.65;9.05;;;-2.10;73.30;;;;;;5970618;23;20020;-86
2022/03/03 00:24:24;;;;;;;20.77;10.23;;;-2.10;75.00;;;;;;6031756;23;20048;-86
2022/03/03 00:26:51;;;;;;;19.42;10.57;;;-2.10;76.00;;;;;;6033026;23;20635;-86
2022/03/03 00:29:29;;;;;;;19.70;10.60;;;-2.10;75.70;;;;;;6033272;23;20032;-86
2022/03/03 00:32:10;;;;;;;22.80;11.20;;;-2.20;75.30;;;;;;6015669;23;20030;-85
2022/03/03 00:34:39;;;;;;;19.75;10.35;;;-2.20;75.80;;;;;;5994204;23;20069;-86
2022/03/03 00:37:09;;;;;;;21.08;10.63;;;-2.20;76.20;;;;;;6013891;23;20333;-85
2022/03/03 00:39:36;;;;;;;17.92;9.50;;;-2.20;74.40;;;;;;6014773;23;20035;-86
2022/03/03 00:42:07;;;;;;;20.17;10.70;;;-2.20;73.10;;;;;;6016830;23;20032;-86
2022/03/03 00:44:48;;;;;;;25.15;10.70;;;-2.30;74.90;;;;;;6027242;23;20114;-85
2022/03/03 00:47:15;;;;;;;19.88;10.35;;;-2.30;74.80;;;;;;6017183;23;20039;-85
2022/03/03 00:49:42;;;;;;;21.25;11.63;;;-2.30;74.10;;;;;;6013006;23;20028;-85
2022/03/03 00:52:10;;;;;;;20.95;10.38;;;-2.30;73.90;;;;;;6049852;23;20110;-86
2022/03/03 00:54:46;;;;;;;22.17;10.82;;;-2.30;74.80;;;;;;6106992;23;20106;-86
2022/03/03 00:57:44;;;;;;;22.92;11.18;;;-2.40;74.10;;;;;;6083647;23;20114;-85
2022/03/03 01:00:29;;;;;;;30.35;12.10;;;-2.40;74.00;;;;;;6086348;23;20774;-85
2022/03/03 01:02:56;;;;;;;22.55;11.73;;;-2.40;76.00;;;;;;6102830;23;20044;-86
2022/03/03 01:05:31;;;;;;;24.42;11.52;;;-2.40;75.50;;;;;;6108123;23;20850;-85
2022/03/03 01:08:17;;;;;;;20.05;9.70;;;-2.40;76.90;;;;;;6083250;23;20007;-85
2022/03/03 01:11:01;;;;;;;20.80;10.90;;;-2.40;76.50;;;;;;6022086;23;20072;-85
2022/03/03 01:13:44;;;;;;;25.50;11.50;;;-2.40;77.50;;;;;;5997508;23;20035;-86
2022/03/03 01:16:46;;;;;;;19.83;10.65;;;-2.40;77.10;;;;;;6065227;23;20047;-86
2022/03/03 01:19:26;;;;;;;26.73;12.93;;;-2.50;75.90;;;;;;6086575;23;20503;-86
2022/03/03 01:21:55;;;;;;;26.77;12.07;;;-2.50;75.30;;;;;;6100797;23;20034;-86
2022/03/03 01:24:28;;;;;;;22.52;11.25;;;-2.50;77.30;;;;;;6100325;23;20019;-86
2022/03/03 01:27:28;;;;;;;20.75;11.23;;;-2.50;77.70;;;;;;6081236;23;20736;-86
2022/03/03 01:29:57;;;;;;;20.45;10.85;;;-2.50;77.50;;;;;;6079256;23;20019;-86
2022/03/03 01:33:11;;;;;;;;;;;;;;;;;;;;;
2022/03/03 01:35:58;;;;;;;17.83;9.65;;;-2.50;74.80;;;;;;6034171;23;20031;-87
2022/03/03 01:38:52;;;;;;;23.98;10.98;;;-2.50;74.20;;;;;;6070144;23;20027;-87
2022/03/03 01:41:21;;;;;;;19.05;10.55;;;-2.50;74.00;;;;;;6086802;23;20022;-86
2022/03/03 01:43:48;;;;;;;21.77;11.00;;;-2.50;75.00;;;;;;6129101;23;20046;-86
2022/03/03 01:46:57;;;;;;;25.80;12.35;;;-2.60;76.60;;;;;;6106187;23;20022;-86
2022/03/03 01:49:28;;;;;;;23.55;11.98;;;-2.60;76.50;;;;;;6099757;23;20053;-86
2022/03/03 01:51:55;;;;;;;24.00;11.30;;;-2.60;78.20;;;;;;6130095;23;20030;-86
2022/03/03 01:54:29;;;;;;;19.55;10.60;;;-2.60;78.00;;;;;;6131203;23;20101;-86
2022/03/03 01:57:00;;;;;;;20.40;10.48;;;-2.60;76.00;;;;;;6108204;23;20026;-86
2022/03/03 01:59:48;;;;;;;15.48;8.70;;;-2.70;75.50;;;;;;6133034;23;20029;-86
2022/03/03 02:05:43;;;;;;;21.10;10.70;;;-2.70;75.60;;;;;;6072798;23;20030;-86
2022/03/03 02:08:22;;;;;;;16.63;9.48;;;-2.70;75.70;;;;;;6073673;23;20023;-86
2022/03/03 02:11:31;;;;;;;19.23;9.82;;;-2.80;74.80;;;;;;6066422;23;20016;-86
2022/03/03 02:14:59;;;;;;;19.85;10.63;;;-2.80;75.90;;;;;;6050403;23;20524;-87
2022/03/03 02:31:20;;;;;;;20.83;9.88;;;-3.10;78.80;;;;;;5853316;24;19925;-86
2022/03/03 02:33:46;;;;;;;17.50;9.90;;;-3.10;80.10;;;;;;5808440;24;20054;-87
2022/03/03 02:36:32;;;;;;;19.05;10.10;;;-3.20;80.90;;;;;;5825582;24;20038;-86
2022/03/03 02:39:11;;;;;;;21.98;9.55;;;-3.20;79.90;;;;;;5833143;24;20042;-87
2022/03/03 02:41:49;;;;;;;20.58;10.05;;;-3.20;78.70;;;;;;5828895;24;20023;-87
2022/03/03 02:44:50;;;;;;;19.65;10.98;;;-3.20;77.80;;;;;;5855779;24;20026;-86
2022/03/03 02:47:22;;;;;;;22.50;10.77;;;-3.30;78.30;;;;;;5780179;24;20988;-87
2022/03/03 02:50:16;;;;;;;21.50;11.32;;;-3.30;78.60;;;;;;5801969;24;20011;-87
2022/03/03 02:56:19;;;;;;;22.23;10.77;;;-3.30;80.70;;;;;;5781097;24;20715;-86
2022/03/03 02:58:45;;;;;;;19.23;10.80;;;-3.40;79.90;;;;;;5874778;24;20022;-86
2022/03/03 03:07:43;;;;;;;22.38;11.77;;;-3.40;78.60;;;;;;5941004;24;20025;-86
2022/03/03 03:10:54;;;;;;;25.63;12.35;;;-3.40;78.50;;;;;;5863808;24;20062;-86
2022/03/03 03:13:30;;;;;;;22.77;12.00;;;-3.40;79.60;;;;;;5890924;24;20068;-87
2022/03/03 03:15:57;;;;;;;22.95;12.27;;;-3.40;79.20;;;;;;5963001;24;20778;-86
2022/03/03 03:18:53;;;;;;;22.38;11.70;;;-3.50;77.80;;;;;;5960966;24;20519;-86
2022/03/03 03:21:52;;;;;;;21.05;11.35;;;-3.50;76.90;;;;;;5938713;24;20029;-87
2022/03/03 03:24:21;;;;;;;22.35;12.20;;;-3.50;76.30;;;;;;6049379;23;20950;-86
2022/03/03 03:27:03;;;;;;;25.77;12.13;;;-3.50;77.20;;;;;;5993207;23;20026;-86
2022/03/03 03:30:11;;;;;;;23.60;12.32;;;-3.50;78.70;;;;;;6081620;23;20047;-86
2022/03/03 03:33:37;;;;;;;25.17;12.02;;;-3.50;80.10;;;;;;6083642;23;20023;-87
2022/03/03 03:43:22;;;;;;;22.23;11.27;;;-3.60;79.30;;;;;;6011688;23;20024;-87
2022/03/03 03:45:49;;;;;;;22.52;11.68;;;-3.60;78.00;;;;;;6071903;23;20043;-87
2022/03/03 03:48:47;;;;;;;;;;;;;;;;;;;;;
2022/03/03 03:51:20;;;;;;;21.53;11.33;;;-3.70;80.00;;;;;;6072960;23;20106;-87
2022/03/03 03:53:47;;;;;;;23.70;10.57;;;-3.60;78.90;;;;;;6073974;23;20066;-87
2022/03/03 03:56:22;;;;;;;23.48;11.23;;;-3.60;77.60;;;;;;6071298;23;20564;-86
2022/03/03 03:58:50;;;;;;;23.75;12.07;;;-3.70;77.10;;;;;;6048590;23;20027;-86
2022/03/03 04:01:19;;;;;;;26.95;12.40;;;-3.70;78.60;;;;;;6048636;23;20121;-87
2022/03/03 04:03:47;;;;;;;22.30;11.38;;;-3.70;78.80;;;;;;6071649;23;20027;-87
2022/03/03 04:06:14;;;;;;;26.42;12.32;;;-3.70;79.00;;;;;;6073045;23;20015;-86
2022/03/03 04:08:40;;;;;;;22.52;11.73;;;-3.70;79.00;;;;;;6074439;23;20023;-87
2022/03/03 04:14:50;;;;;;;26.42;11.30;;;-3.70;80.00;;;;;;5958387;24;20029;-87
2022/03/03 04:17:31;;;;;;;21.67;11.00;;;-3.80;80.90;;;;;;5956953;24;20029;-86
2022/03/03 04:20:12;;;;;;;21.90;11.18;;;-3.80;79.40;;;;;;5991521;23;20838;-86
2022/03/03 04:22:44;;;;;;;21.88;11.55;;;-3.90;79.10;;;;;;6015532;23;20091;-87
2022/03/03 04:25:12;;;;;;;21.27;10.75;;;-3.90;78.60;;;;;;6016268;23;20058;-87
2022/03/03 04:28:09;;;;;;;24.70;12.85;;;-3.90;77.60;;;;;;6015882;23;20028;-87
2022/03/03 04:30:57;;;;;;;25.73;10.20;;;-4.00;78.10;;;;;;6015787;23;20227;-85
2022/03/03 04:33:26;;;;;;;22.17;11.35;;;-4.00;77.40;;;;;;6014355;23;20020;-85
2022/03/03 04:35:53;;;;;;;23.67;11.75;;;-4.00;78.10;;;;;;6014386;23;20020;-86
2022/03/03 04:38:26;;;;;;;28.15;12.02;;;-4.00;77.60;;;;;;6016250;23;20028;-85
2022/03/03 04:41:27;;;;;;;24.60;11.63;;;-4.10;77.40;;;;;;6016423;23;20241;-85
2022/03/03 04:43:58;;;;;;;26.58;13.07;;;-4.10;78.40;;;;;;6014497;23;20056;-85
2022/03/03 04:46:29;;;;;;;24.70;12.07;;;-4.10;80.40;;;;;;6015543;23;20080;-85
2022/03/03 04:49:26;;;;;;;24.77;12.07;;;-4.10;80.40;;;;;;6018000;23;20084;-85
2022/03/03 04:52:07;;;;;;;23.73;13.13;;;-4.20;78.70;;;;;;6116711;23;20751;-85
2022/03/03 04:54:35;;;;;;;23.98;11.10;;;-4.10;79.70;;;;;;6166728;23;20026;-85
2022/03/03 04:57:02;;;;;;;19.95;11.10;;;-4.20;78.40;;;;;;6170979;23;20014;-85
2022/03/03 04:59:29;;;;;;;28.65;13.73;;;-4.20;77.30;;;;;;6165609;23;20801;-86
2022/03/03 05:01:56;;;;;;;29.52;14.35;;;-4.20;78.80;;;;;;6138762;23;20049;-86
2022/03/03 05:04:23;;;;;;;29.05;13.25;;;-4.20;81.40;;;;;;6163321;23;20029;-86
2022/03/03 05:06:50;;;;;;;22.08;10.73;;;-4.20;81.30;;;;;;6166400;23;20030;-85
2022/03/03 05:09:29;;;;;;;27.48;13.63;;;-4.20;79.20;;;;;;6168761;23;20022;-85
2022/03/03 05:11:59;;;;;;;21.38;12.43;;;-4.20;78.80;;;;;;6163328;23;20030;-86
2022/03/03 05:14:27;;;;;;;27.52;13.73;;;-4.20;80.70;;;;;;6164203;23;20014;-86
2022/03/03 05:16:54;;;;;;;25.70;12.23;;;-4.20;79.40;;;;;;6165633;23;20026;-85
2022/03/03 05:19:20;;;;;;;25.98;13.18;;;-4.20;78.90;;;;;;6140067;23;20018;-85
2022/03/03 05:22:29;;;;;;;25.25;13.25;;;-4.20;79.00;;;;;;6164711;23;20030;-86
2022/03/03 05:25:05;;;;;;;26.27;12.60;;;-4.20;80.30;;;;;;6115394;23;20022;-86
2022/03/03 05:27:33;;;;;;;28.02;13.52;;;-4.20;80.80;;;;;;6162439;23;20022;-86
2022/03/03 05:33:23;;;;;;;22.25;11.02;;;-4.20;80.90;;;;;;6161247;23;20083;-86
2022/03/03 05:36:23;;;;;;;27.77;13.10;;;-4.20;81.10;;;;;;6167048;23;20045;-86
2022/03/03 05:38:52;;;;;;;22.77;11.07;;;-4.30;80.00;;;;;;6165189;23;20049;-86
2022/03/03 05:41:19;;;;;;;24.90;12.18;;;-4.30;78.70;;;;;;6165747;23;20014;-86
2022/03/03 05:43:50;;;;;;;27.50;14.23;;;-4.30;78.50;;;;;;6141221;23;20061;-86
2022/03/03 05:46:19;;;;;;;23.52;11.50;;;-4.30;79.90;;;;;;6168073;23;20022;-86
2022/03/03 05:49:06;;;;;;;29.58;13.82;;;-4.40;79.80;;;;;;6170498;23;20077;-86
2022/03/03 05:52:05;;;;;;;23.73;12.07;;;-4.40;79.80;;;;;;6143275;23;20026;-86
2022/03/03 06:03:17;;;;;;;20.45;10.32;;;-4.40;79.30;;;;;;6105904;23;20520;-86
2022/03/03 06:07:09;;;;;;;21.15;11.80;;;-4.40;78.60;;;;;;5991037;23;20939;-86
2022/03/03 06:09:37;;;;;;;24.63;12.05;;;-4.40;77.60;;;;;;6013961;23;20087;-86
2022/03/03 06:12:12;;;;;;;24.83;12.13;;;-4.40;79.20;;;;;;6042344;23;20038;-86
2022/03/03 06:14:46;;;;;;;26.77;13.57;;;-4.40;78.80;;;;;;6041005;23;20034;-86
2022/03/03 06:18:02;;;;;;;28.30;13.95;;;-4.40;78.60;;;;;;6048477;23;20048;-86
2022/03/03 06:24:17;;;;;;;33.88;15.45;;;-4.40;81.30;;;;;;6048573;23;20032;-85
2022/03/03 06:26:49;;;;;;;29.83;15.55;;;-4.40;82.30;;;;;;6050958;23;20114;-85
2022/03/03 06:33:43;;;;;;;36.45;13.98;;;-4.40;79.60;;;;;;5937538;24;20058;-86
2022/03/03 06:36:27;;;;;;;35.15;14.35;;;-4.40;80.00;;;;;;5836287;24;20068;-86
2022/03/03 06:39:11;;;;;;;27.95;13.40;;;-4.30;81.10;;;;;;5887591;24;20022;-85
2022/03/03 06:41:55;;;;;;;31.40;14.77;;;-4.30;80.70;;;;;;5905890;24;20022;-86
2022/03/03 06:44:56;;;;;;;26.48;12.77;;;-4.30;79.60;;;;;;5908059;24;20108;-86
2022/03/03 06:47:37;;;;;;;22.80;11.68;;;-4.30;79.70;;;;;;5904807;24;20030;-86
2022/03/03 06:50:19;;;;;;;25.20;13.25;;;-4.30;79.10;;;;;;5904830;24;20026;-86
2022/03/03 07:10:02;;;;;;;31.90;14.75;;;-4.20;80.50;;;;;;5155749;27;20411;-83
2022/03/03 07:12:34;;;;;;;32.30;14.65;;;-4.10;81.10;;;;;;5152064;27;20092;-83
2022/03/03 07:15:23;;;;;;;33.13;14.43;;;-4.00;81.80;;;;;;5143151;27;20054;-83
2022/03/03 07:18:32;;;;;;;29.25;14.57;;;-4.00;82.50;;;;;;5154560;27;20048;-83
2022/03/03 07:21:05;;;;;;;28.38;13.63;;;-4.00;82.50;;;;;;5151429;27;20066;-84
2022/03/03 07:24:25;;;;;;;;;;;;;;;;;;;;;
2022/03/03 07:27:25;;;;;;;29.67;13.23;;;-3.90;81.60;;;;;;5091568;28;20068;-83
2022/03/03 07:30:15;;;;;;;34.30;15.02;;;-3.80;81.60;;;;;;5096137;27;20057;-84
2022/03/03 07:32:55;;;;;;;29.00;13.45;;;-3.80;81.20;;;;;;5085732;27;20135;-83
2022/03/03 07:36:02;;;;;;;26.98;14.07;;;-3.70;81.10;;;;;;5093026;28;20084;-84
2022/03/03 07:38:43;;;;;;;30.00;14.77;;;-3.70;80.60;;;;;;5085105;28;20044;-83
2022/03/03 07:41:20;;;;;;;32.95;15.88;;;-3.60;81.10;;;;;;5087472;28;20625;-83
2022/03/03 07:43:55;;;;;;;27.30;15.00;;;-3.50;81.40;;;;;;5086899;28;20056;-83
2022/03/03 07:46:58;;;;;;;33.75;15.48;;;-3.40;82.90;;;;;;5155323;27;20081;-84
2022/03/03 07:49:30;;;;;;;34.80;16.25;;;-3.30;82.30;;;;;;5151828;27;20090;-83
2022/03/03 07:52:11;;;;;;;30.73;15.13;;;-3.20;81.20;;;;;;5123650;27;20063;-84
2022/03/03 07:54:43;;;;;;;34.00;15.95;;;-3.10;81.00;;;;;;5164040;27;20071;-84
2022/03/03 07:57:16;;;;;;;32.20;16.50;;;-3.00;80.40;;;;;;5157484;27;20057;-84
2022/03/03 08:00:00;;;;;;;38.38;16.17;;;-2.90;80.40;;;;;;5147319;27;20046;-84
2022/03/03 08:02:31;;;;;;;38.78;18.27;;;-2.80;80.90;;;;;;5144737;27;20872;-84
2022/03/03 08:05:02;;;;;;;41.70;19.17;;;-2.70;81.10;;;;;;5144126;27;20065;-83
2022/03/03 08:07:38;;;;;;;39.40;17.48;;;-2.60;82.40;;;;;;5159692;27;20062;-84
2022/03/03 08:10:08;;;;;;;31.40;17.13;;;-2.40;83.10;;;;;;5158365;27;20059;-84
2022/03/03 08:12:42;;;;;;;36.17;17.65;;;-2.30;82.20;;;;;;5157263;27;20427;-84
2022/03/03 08:15:14;;;;;;;33.35;16.38;;;-2.20;81.60;;;;;;5151285;27;20096;-84
2022/03/03 08:17:47;;;;;;;37.05;19.00;;;-2.00;82.00;;;;;;5173860;27;20428;-84
2022/03/03 08:20:17;;;;;;;33.38;16.65;;;-1.70;84.50;;;;;;5140742;27;20052;-84
2022/03/03 08:22:52;;;;;;;35.25;17.38;;;-1.50;84.10;;;;;;5146691;27;20055;-84
2022/03/03 08:25:22;;;;;;;33.92;17.85;;;-1.40;83.60;;;;;;5141901;27;20862;-84
2022/03/03 08:27:49;;;;;;;36.10;18.40;;;-1.30;82.80;;;;;;5138629;27;20464;-84
2022/03/03 08:30:16;;;;;;;37.25;18.40;;;-1.10;83.20;;;;;;5140914;27;20051;-84
2022/03/03 08:33:35;;;;;;;40.17;19.70;;;-0.90;83.90;;;;;;5123916;27;20051;-84
2022/03/03 08:36:06;;;;;;;34.72;18.25;;;-0.20;84.30;;;;;;5130505;27;20416;-84
2022/03/03 08:38:50;;;;;;;37.88;18.25;;;0.50;82.80;;;;;;5137420;27;20055;-84
2022/03/03 08:41:25;;;;;;;29.23;15.35;;;1.20;80.70;;;;;;5131653;27;20478;-84
2022/03/03 08:44:03;;;;;;;29.20;14.88;;;2.00;74.50;;;;;;5145409;27;20054;-84
2022/03/03 08:46:41;;;;;;;29.92;16.75;;;2.60;71.40;;;;;;5144422;27;20091;-84
2022/03/03 08:49:20;;;;;;;26.77;16.08;;;3.30;74.90;;;;;;5139026;27;20051;-84
2022/03/03 08:52:11;;;;;;;24.02;12.95;;;3.90;72.00;;;;;;5140954;27;20138;-83
2022/03/03 08:55:12;;;;;;;25.10;12.82;;;4.40;65.70;;;;;;5125713;27;20074;-84
2022/03/03 08:58:07;;;;;;;26.85;13.18;;;4.90;61.10;;;;;;5132152;27;20081;-84
2022/03/03 09:00:34;;;;;;;20.10;11.77;;;5.50;64.30;;;;;;5132911;27;20654;-84
2022/03/03 09:03:02;;;;;;;21.23;13.18;;;6.10;57.80;;;;;;5137634;27;20082;-84
2022/03/03 09:06:00;;;;;;;23.25;11.93;;;6.40;58.90;;;;;;5140325;27;20051;-84
2022/03/03 09:08:27;;;;;;;;;;;6.90;53.60;;;;;;5140812;27;20615;-84
2022/03/03 09:11:10;;;;;;;20.73;11.38;;;7.20;54.90;;;;;;5133056;27;20464;-84
2022/03/03 09:13:42;;;;;;;18.73;11.27;;;7.90;50.90;;;;;;5135938;27;20051;-84
2022/03/03 09:16:29;;;;;;;26.25;11.57;;;7.80;51.20;;;;;;5137296;27;20404;-83
2022/03/03 09:19:22;;;;;;;14.68;10.23;;;8.30;48.50;;;;;;5140109;27;20059;-84
2022/03/03 09:21:54;;;;;;;16.65;10.65;;;8.40;47.60;;;;;;5142556;27;20151;-84
2022/03/03 09:24:35;;;;;;;20.45;10.65;;;8.60;48.60;;;;;;5139822;27;20523;-84
2022/03/03 09:27:04;;;;;;;15.90;10.45;;;9.10;45.30;;;;;;5138635;27;20502;-84
2022/03/03 09:30:16;;;;;;;16.10;10.65;;;9.40;46.90;;;;;;5142233;27;20051;-84
2022/03/03 09:32:44;;;;;;;19.13;10.60;;;9.70;44.80;;;;;;5140092;27;20051;-84
2022/03/03 09:35:13;;;;;;;16.15;10.18;;;10.10;46.70;;;;;;5143593;27;20811;-84
2022/03/03 09:37:55;;;;;;;21.60;10.73;;;10.30;43.60;;;;;;5142514;27;20055;-84
2022/03/03 09:40:37;;;;;;;17.40;11.32;;;10.10;41.80;;;;;;5147262;27;20080;-83
2022/03/03 09:43:15;;;;;;;16.95;10.52;;;10.50;48.20;;;;;;5139360;27;20067;-83
2022/03/03 09:45:42;;;;;;;18.63;11.05;;;11.30;44.00;;;;;;5139027;27;20056;-84
2022/03/03 09:48:19;;;;;;;20.77;10.40;;;11.20;42.30;;;;;;5140040;27;20078;-84
2022/03/03 09:50:48;;;;;;;15.77;10.32;;;11.40;42.90;;;;;;5145115;27;20047;-84
2022/03/03 09:53:22;;;;;;;17.73;10.63;;;11.50;39.50;;;;;;5143406;27;20630;-84
2022/03/03 09:56:23;;;;;;;18.42;10.98;;;11.70;43.50;;;;;;5141866;27;20105;-84
2022/03/03 09:58:49;;;;;;;17.98;10.43;;;12.00;41.10;;;;;;5137667;27;20561;-84
2022/03/03 10:01:19;;;;;;;15.70;10.32;;;12.40;44.80;;;;;;5138879;27;20512;-84
2022/03/03 10:03:50;;;;;;;16.00;10.30;;;12.80;42.10;;;;;;5141110;27;20055;-84
2022/03/03 10:06:28;;;;;;;13.95;10.02;;;13.10;39.80;;;;;;5138314;27;20051;-84
2022/03/03 10:09:02;;;;;;;15.25;10.30;;;13.30;39.60;;;;;;5154939;27;20035;-84
2022/03/03 10:11:47;;;;;;;15.32;9.50;;;12.90;39.60;;;;;;5154373;27;20051;-84
2022/03/03 10:14:43;;;;;;;23.45;10.10;;;13.10;39.80;;;;;;5161158;27;20039;-85
2022/03/03 10:17:14;;;;;;;16.98;9.48;;;13.20;39.10;;;;;;5170261;27;20065;-84
2022/03/03 10:19:56;;;;;;;18.37;9.93;;;12.70;38.20;;;;;;5146801;27;20158;-84
2022/03/03 10:22:57;;;;;;;17.58;10.15;;;13.00;38.70;;;;;;5145068;27;20055;-84
2022/03/03 10:25:44;;;;;;;17.40;10.35;;;13.30;35.70;;;;;;5138644;27;20745;-84
2022/03/03 10:28:17;;;;;;;22.02;10.25;;;13.40;39.40;;;;;;5137633;27;20054;-84
2022/03/03 10:31:28;;;;;;;18.55;10.50;;;13.70;38.00;;;;;;5142409;27;20482;-85
2022/03/03 10:33:55;;;;;;;17.65;9.55;;;13.80;36.80;;;;;;5133062;27;20047;-85
2022/03/03 10:36:30;;;;;;;15.07;9.48;;;13.50;36.30;;;;;;5136548;27;20086;-84
2022/03/03 10:39:06;;;;;;;15.60;9.52;;;13.50;36.90;;;;;;5140804;27;20047;-85
2022/03/03 10:41:51;;;;;;;16.30;8.98;;;13.80;37.50;;;;;;5140307;27;20043;-84
2022/03/03 10:44:27;;;;;;;14.30;9.20;;;13.20;35.80;;;;;;5137271;27;20555;-85
2022/03/03 10:47:07;;;;;;;17.13;9.90;;;13.30;37.50;;;;;;5138125;27;20051;-84
2022/03/03 10:49:39;;;;;;;16.20;8.77;;;12.90;37.50;;;;;;5143328;27;20133;-85
2022/03/03 10:52:27;;;;;;;16.73;9.77;;;12.90;34.90;;;;;;5140315;27;20100;-84
2022/03/03 10:54:56;;;;;;;16.08;9.68;;;12.70;34.20;;;;;;5138309;27;20551;-85
2022/03/03 10:57:33;;;;;;;13.75;8.95;;;12.80;36.60;;;;;;5140622;27;20402;-85
2022/03/03 11:00:23;;;;;;;18.60;8.68;;;13.00;35.80;;;;;;5135497;27;20052;-85
2022/03/03 11:02:58;;;;;;;13.00;8.45;;;13.00;32.90;;;;;;5138201;27;20497;-85
2022/03/03 11:05:28;;;;;;;13.63;8.38;;;13.00;34.50;;;;;;5154238;27;20522;-85
2022/03/03 11:07:58;;;;;;;13.52;8.52;;;13.20;34.90;;;;;;5139010;27;20059;-85
2022/03/03 11:10:29;;;;;;;12.07;7.53;;;13.30;35.40;;;;;;5138711;27;20055;-85
2022/03/03 11:12:57;;;;;;;12.20;7.30;;;13.30;33.20;;;;;;5144864;27;20049;-85
2022/03/03 11:15:28;;;;;;;13.00;7.60;;;13.10;31.60;;;;;;5172786;27;20051;-85
2022/03/03 11:17:55;;;;;;;11.35;7.50;;;12.80;32.40;;;;;;5139097;27;20055;-84
2022/03/03 11:20:26;;;;;;;10.55;7.13;;;12.80;32.30;;;;;;5141115;27;20070;-84
2022/03/03 11:22:55;;;;;;;12.23;7.70;;;12.60;33.30;;;;;;5138653;27;20051;-84
2022/03/03 11:25:30;;;;;;;11.00;7.50;;;12.60;33.80;;;;;;5139124;27;20457;-84
2022/03/03 11:28:14;;;;;;;11.93;7.65;;;12.60;33.40;;;;;;5141259;27;20661;-84
2022/03/03 11:30:46;;;;;;;11.15;7.40;;;12.40;32.50;;;;;;5138955;27;20058;-85
2022/03/03 11:33:29;;;;;;;17.00;7.57;;;12.30;32.20;;;;;;5149273;27;20105;-84
2022/03/03 11:36:11;;;;;;;11.20;7.55;;;12.50;32.90;;;;;;5144900;27;20058;-84
2022/03/03 11:38:53;;;;;;;13.82;7.90;;;12.20;31.20;;;;;;5141302;27;20872;-85
2022/03/03 11:41:25;;;;;;;9.80;6.72;;;12.00;32.00;;;;;;5143025;27;20051;-85
2022/03/03 11:44:10;;;;;;;12.25;7.35;;;11.90;33.10;;;;;;5141058;27;20111;-85
2022/03/03 11:47:22;;;;;;;11.25;7.30;;;11.90;33.40;;;;;;5137247;27;20523;-85
2022/03/03 11:50:22;;;;;;;15.63;7.32;;;11.80;31.70;;;;;;5128066;27;20055;-85
2022/03/03 11:52:59;;;;;;;15.27;8.05;;;11.90;34.00;;;;;;5150019;27;20244;-85
2022/03/03 11:55:46;;;;;;;13.73;7.65;;;11.80;32.00;;;;;;5145112;27;20048;-85
2022/03/03 11:58:46;;;;;;;15.43;7.60;;;11.80;33.60;;;;;;5135004;27;20389;-85
2022/03/03 12:01:55;;;;;;;16.02;7.82;;;11.70;32.60;;;;;;5142686;27;20519;-85
2022/03/03 12:04:26;;;;;;;13.68;7.93;;;11.60;33.90;;;;;;5133590;27;20098;-85
2022/03/03 12:06:59;;;;;;;11.98;7.68;;;11.70;32.40;;;;;;5135418;27;20043;-85
2022/03/03 12:09:34;;;;;;;13.18;7.82;;;11.70;34.40;;;;;;5146142;27;20140;-85
2022/03/03 12:12:19;;;;;;;11.75;7.93;;;11.70;34.20;;;;;;5135638;27;20133;-86
2022/03/03 12:14:59;;;;;;;11.32;7.82;;;11.70;33.00;;;;;;5147560;27;20086;-85
2022/03/03 12:18:11;;;;;;;16.90;8.45;;;11.70;34.00;;;;;;5136951;27;20503;-86
2022/03/03 12:20:40;;;;;;;12.32;7.85;;;11.70;33.80;;;;;;5141799;27;20062;-85
2022/03/03 12:23:35;;;;;;;14.80;8.75;;;11.80;33.30;;;;;;5135527;27;20053;-85
2022/03/03 12:26:18;;;;;;;15.23;9.02;;;11.70;33.60;;;;;;5145343;27;20593;-85
2022/03/03 12:28:51;;;;;;;12.00;8.38;;;11.70;34.70;;;;;;5146840;27;20048;-85
2022/03/03 12:31:47;;;;;;;14.02;8.82;;;11.80;35.20;;;;;;5146129;27;20054;-85
2022/03/03 12:34:20;;;;;;;14.27;9.38;;;11.70;34.30;;;;;;5142174;27;20047;-85
2022/03/03 12:37:21;;;;;;;12.85;9.10;;;11.70;35.20;;;;;;5115852;27;20105;-85
2022/03/03 12:40:14;;;;;;;13.25;9.05;;;11.70;34.40;;;;;;5141821;27;20048;-85
2022/03/03 12:43:02;;;;;;;;;;;;;;;;;;;;;
2022/03/03 12:45:34;;;;;;;13.88;9.05;;;11.90;36.50;;;;;;5141173;27;20460;-86
2022/03/03 12:48:25;;;;;;;12.20;8.48;;;12.10;36.40;;;;;;5140825;27;20055;-85
2022/03/03 12:51:10;;;;;;;13.45;8.77;;;12.20;35.90;;;;;;5144554;27;20056;-83
2022/03/03 12:53:57;;;;;;;13.70;8.80;;;12.00;34.50;;;;;;5136882;27;20050;-83
2022/03/03 12:56:27;;;;;;;16.65;9.15;;;12.10;36.20;;;;;;5142949;27;20058;-83
2022/03/03 12:59:08;;;;;;;13.48;9.10;;;12.20;35.90;;;;;;5141170;27;20131;-83
2022/03/03 13:01:37;;;;;;;18.45;10.40;;;12.30;34.20;;;;;;5144409;27;20803;-83
2022/03/03 13:04:22;;;;;;;13.85;9.95;;;12.30;34.10;;;;;;5142921;27;20051;-83
2022/03/03 13:07:07;;;;;;;20.30;8.75;;;12.20;34.50;;;;;;5139650;27;20056;-83
2022/03/03 13:09:58;;;;;;;16.52;9.80;;;12.30;36.60;;;;;;5144155;27;20086;-83
2022/03/03 13:12:45;;;;;;;16.90;9.43;;;12.40;35.50;;;;;;5136779;27;20509;-83
2022/03/03 13:15:33;;;;;;;14.45;8.95;;;12.40;35.30;;;;;;5143658;27;20066;-83
2022/03/03 13:18:08;;;;;;;16.60;9.40;;;12.40;36.40;;;;;;5145638;27;20055;-84
2022/03/03 13:21:06;;;;;;;12.15;8.82;;;12.50;34.80;;;;;;5146600;27;20048;-85
2022/03/03 13:23:33;;;;;;;17.55;9.57;;;12.60;35.10;;;;;;5145079;27;20135;-84
2022/03/03 13:26:10;;;;;;;14.15;9.65;;;12.50;34.20;;;;;;5138455;27;20113;-84
2022/03/03 13:28:56;;;;;;;12.50;8.90;;;12.50;34.80;;;;;;5137266;27;20056;-84
2022/03/03 13:31:51;;;;;;;11.75;9.00;;;12.40;34.60;;;;;;5137150;27;20098;-84
2022/03/03 13:34:29;;;;;;;14.02;9.13;;;12.60;35.60;;;;;;5161505;27;20912;-85
2022/03/03 13:36:57;;;;;;;14.80;8.88;;;12.50;34.90;;;;;;5143841;27;20098;-84
2022/03/03 13:39:39;;;;;;;16.55;9.15;;;12.50;36.10;;;;;;5154324;27;20035;-85
2022/03/03 13:42:15;;;;;;;13.80;8.40;;;12.50;34.20;;;;;;5145110;27;20043;-84
2022/03/03 13:44:57;;;;;;;12.73;8.85;;;12.50;34.60;;;;;;5141953;27;20068;-84
2022/03/03 13:47:52;;;;;;;13.00;9.23;;;12.40;34.00;;;;;;5143937;27;20047;-84
2022/03/03 13:51:01;;;;;;;13.88;9.00;;;12.40;33.90;;;;;;5146069;27;20079;-84
2022/03/03 13:54:14;;;;;;;12.23;8.57;;;12.40;35.60;;;;;;5138220;27;20049;-84
2022/03/03 13:56:42;;;;;;;13.98;8.38;;;12.50;35.60;;;;;;5143778;27;20032;-84
2022/03/03 13:59:11;;;;;;;14.77;9.25;;;12.40;35.50;;;;;;5143512;27;20094;-84
2022/03/03 14:02:08;;;;;;;14.13;8.60;;;12.40;34.40;;;;;;5146310;27;20054;-84
2022/03/03 14:05:11;;;;;;;12.50;8.90;;;12.40;33.30;;;;;;5143010;27;20044;-84
2022/03/03 14:07:40;;;;;;;14.75;8.30;;;12.30;33.60;;;;;;5143037;27;20074;-84
2022/03/03 14:14:43;;;;;;;14.65;8.88;;;12.20;34.00;;;;;;5123214;27;20461;-84
2022/03/03 14:17:10;;;;;;;11.75;8.40;;;12.20;35.10;;;;;;5141544;27;20550;-84
2022/03/03 14:19:40;;;;;;;20.67;8.85;;;12.20;36.00;;;;;;5142466;27;20058;-84
2022/03/03 14:22:25;;;;;;;12.88;8.60;;;12.20;35.20;;;;;;5167687;27;20044;-84
2022/03/03 14:24:54;;;;;;;14.27;8.85;;;12.10;34.40;;;;;;5169942;27;20051;-84
2022/03/03 14:27:39;;;;;;;13.57;8.85;;;12.10;34.00;;;;;;5139051;27;20106;-84
2022/03/03 14:30:13;;;;;;;13.85;8.38;;;12.10;35.20;;;;;;5141421;27;20047;-85
2022/03/03 14:33:03;;;;;;;14.85;8.85;;;12.20;35.20;;;;;;5139055;27;20059;-84
2022/03/03 14:35:30;;;;;;;13.95;9.18;;;12.10;34.60;;;;;;5142831;27;20042;-84
2022/03/03 14:37:57;;;;;;;13.30;9.10;;;12.10;35.10;;;;;;5142632;27;20086;-84
2022/03/03 14:40:30;;;;;;;13.40;8.38;;;12.10;35.30;;;;;;5144188;27;20086;-84
2022/03/03 14:43:22;;;;;;;12.45;8.75;;;12.10;33.20;;;;;;5153200;27;20058;-85
2022/03/03 14:46:17;;;;;;;13.80;8.10;;;12.00;33.20;;;;;;5141829;27;20043;-84
2022/03/03 14:49:03;;;;;;;16.13;9.20;;;12.10;34.40;;;;;;5140756;27;20102;-84
2022/03/03 14:51:30;;;;;;;13.68;7.75;;;12.10;35.50;;;;;;5136067;27;20054;-84
2022/03/03 14:54:06;;;;;;;10.85;7.10;;;12.20;33.60;;;;;;5140358;27;20108;-84
2022/03/03 14:56:39;;;;;;;11.07;7.43;;;12.10;33.20;;;;;;5131762;27;20102;-84
2022/03/03 15:00:01;;;;;;;9.88;6.95;;;12.00;31.90;;;;;;5119184;27;20075;-84
2022/03/03 15:02:48;;;;;;;12.25;7.32;;;12.10;34.40;;;;;;5103201;27;20117;-84
2022/03/03 15:05:28;;;;;;;12.15;7.30;;;12.10;32.20;;;;;;5138551;27;20632;-84
2022/03/03 15:08:06;;;;;;;16.17;7.40;;;12.10;32.10;;;;;;5138948;27;20838;-85